Latest Weather Observations for Hobart

IDT60801

Issued at 10:05 am EST Saturday 2 August 2014 (issued every 30 minutes, with the page automatically refreshed every 10 minutes)

About weather observations | Map of weather stations | Latest weather observations for TAS | Other Formats
Station Details ID: 094029 Name: HOBART (ELLERSLIE ROAD) Lat: -42.89 Lon: 147.33 Height: 50.5 m
Data from the previous 72 hours. | See also: Recent months at Hobart
Date/Time
EST
Temp
°C
App
Temp
°C
Dew
Point
Rel
Hum
%
Delta-T
°C
Wind Press
QNH
hPa
Press
MSL
hPa
Rain
since 9 am
mm
Dir
 
Spd
km/h
Gust
km/h
Spd
kts
Gust
kts
02/10:00am 7.3 0.1 0.7 63 2.6 NNW 28 44 15 24 1022.4 1022.5 0.0
02/09:30am 6.5 -0.7 0.6 66 2.3 NNW 28 37 15 20 1022.0 - 0.0
02/09:00am 5.2 -1.3 0.5 72 1.8 NNW 24 37 13 20 1022.1 1022.2 11.8
02/08:30am 4.9 -1.6 0.2 71 1.8 NNW 24 33 13 18 1021.8 - 11.8
02/08:00am 4.2 -2.6 0.5 77 1.4 NNW 26 37 14 20 1021.5 1021.6 11.8
02/07:30am 4.0 -2.5 0.0 75 1.5 NW 24 35 13 19 1021.2 - 11.8
02/07:00am 3.7 -1.9 0.2 78 1.3 NNW 19 33 10 18 1020.5 1020.6 11.8
02/06:30am 3.6 -2.2 -0.2 76 1.4 NW 20 28 11 15 1019.9 - 11.8
02/06:00am 3.8 -2.4 -0.2 75 1.5 NNW 22 39 12 21 1019.5 1019.6 11.8
02/05:30am 4.4 -1.9 -1.0 68 2.0 NNW 22 32 12 17 1019.2 - 11.8
02/05:00am 4.0 -2.6 -0.6 72 1.7 NNW 24 32 13 17 1019.2 1019.3 11.8
02/04:30am 4.2 -0.4 -0.7 70 1.8 N 13 22 7 12 1019.1 - 11.8
02/04:00am 3.7 0.0 -0.3 75 1.5 NNW 9 22 5 12 1018.8 1018.9 11.8
02/03:30am 3.7 -1.2 -0.6 73 1.6 NW 15 26 8 14 1018.6 - 11.8
02/03:00am 4.5 -1.5 -1.2 66 2.1 NNW 20 32 11 17 1018.4 1018.5 11.8
02/02:30am 4.6 0.3 -1.8 63 2.3 NNW 11 20 6 11 1018.2 - 11.8
02/02:00am 5.9 1.1 -2.7 54 3.1 WSW 13 30 7 16 1018.1 1018.2 11.8
02/01:30am 6.0 -0.2 -3.3 51 3.3 WSW 20 37 11 20 1017.2 - 11.8
02/01:00am 6.1 -1.8 -4.3 47 3.6 SW 28 52 15 28 1016.5 1016.6 11.8
02/12:30am 5.5 -1.1 -3.3 53 3.1 SW 22 33 12 18 1016.3 - 11.8
02/12:00am 5.6 -0.3 -2.4 56 2.9 WSW 19 33 10 18 1016.1 1016.2 11.8
 
Date/Time
EST
Temp
°C
App
Temp
°C
Dew
Point
Rel
Hum
%
Delta-T
°C
Wind Press
QNH
hPa
Press
MSL
hPa
Rain
since 9 am
mm
Dir
 
Spd
km/h
Gust
km/h
Spd
kts
Gust
kts
01/11:30pm 5.4 -1.8 -1.7 60 2.6 SW 26 39 14 21 1015.4 - 11.8
01/11:00pm 5.3 -1.1 -1.8 60 2.6 WSW 22 39 12 21 1015.0 1015.1 11.8
01/10:30pm 5.4 -0.7 -2.0 59 2.7 SW 20 32 11 17 1014.6 - 11.8
01/10:00pm 4.8 -1.9 -0.8 67 2.1 NW 24 41 13 22 1013.9 1014.0 11.8
01/09:30pm 4.4 -1.7 0.5 76 1.5 SSW 22 35 12 19 1013.4 - 11.8
01/09:00pm 4.6 -2.8 -0.5 69 1.9 SSW 28 41 15 22 1013.0 1013.1 11.8
01/08:30pm 3.8 -2.5 1.8 87 0.8 SW 24 35 13 19 1012.8 - 11.8
01/08:00pm 4.8 -1.2 1.2 77 1.4 SE 22 30 12 16 1011.9 1011.9 11.0
01/07:30pm 5.2 -0.4 0.0 69 2.0 SE 19 26 10 14 1010.7 - 10.8
01/07:00pm 5.4 1.7 0.2 69 2.0 S 9 19 5 10 1009.7 1009.8 10.8
01/06:30pm 6.1 1.2 -0.7 62 2.6 SW 15 26 8 14 1008.9 - 10.8
01/06:00pm 5.8 1.4 0.1 67 2.2 SW 13 30 7 16 1007.7 1007.8 10.8
01/05:30pm 6.2 0.0 -0.3 63 2.5 SW 22 50 12 27 1006.6 - 10.8
01/05:00pm 6.9 2.7 -0.6 59 2.9 W 11 20 6 11 1005.4 1005.5 10.8
01/04:30pm 6.8 2.7 -0.4 60 2.8 SW 11 19 6 10 1004.4 - 10.8
01/04:00pm 6.6 2.9 0.2 63 2.5 SW 9 24 5 13 1003.6 1003.7 10.8
01/03:30pm 6.2 3.1 1.2 70 2.0 NW 7 17 4 9 1002.7 - 10.8
01/03:00pm 5.8 0.4 1.0 71 1.9 SSW 19 30 10 16 1001.6 1001.7 10.8
01/02:30pm 6.2 0.1 0.6 67 2.2 SSW 22 48 12 26 1000.7 - 10.4
01/02:00pm 5.4 -2.5 1.1 74 1.7 SW 32 50 17 27 999.5 999.6 10.2
01/01:30pm 4.5 -0.8 1.8 83 1.1 SW 19 33 10 18 998.9 - 10.2
01/01:00pm 4.8 -2.2 2.1 83 1.1 SW 28 41 15 22 998.6 998.7 8.8
01/12:30pm 4.5 -0.9 2.3 86 0.9 SSW 20 33 11 18 998.0 - 7.6
01/12:00pm 5.4 2.1 2.5 81 1.2 SW 9 17 5 9 997.1 997.2 4.6
01/11:30am 5.4 1.9 3.5 87 0.8 NW 11 15 6 8 996.4 - 3.4
01/11:00am 5.3 1.6 2.6 83 1.1 WNW 11 15 6 8 995.6 995.6 3.2
01/10:30am 4.7 1.5 3.0 89 0.7 SW 9 13 5 7 994.9 - 2.6
01/10:00am 6.0 0.6 2.4 78 1.5 SE 20 26 11 14 994.1 994.1 0.4
01/09:30am 6.7 0.8 -0.5 60 2.8 N 20 32 11 17 992.5 - 0.0
01/09:00am 6.3 1.5 0.5 66 2.3 NE 15 26 8 14 991.5 991.5 27.6
01/08:30am 6.1 -3.0 -0.6 62 2.5 NW 37 59 20 32 989.2 - 27.6
01/08:00am 5.2 -3.5 -0.2 68 2.1 NW 35 56 19 30 988.5 988.6 27.6
01/07:30am 4.5 -4.1 0.4 75 1.6 NW 35 57 19 31 988.4 - 27.6
01/07:00am 4.5 -4.4 0.7 76 1.5 NW 37 57 20 31 988.2 988.3 27.6
01/06:30am 4.2 -3.9 0.9 79 1.3 NW 33 54 18 29 988.4 - 27.6
01/06:00am 4.3 -3.1 1.8 84 1.0 NW 30 41 16 22 989.0 989.1 27.2
01/05:30am 5.2 -0.3 0.9 74 1.7 NW 19 28 10 15 988.8 - 26.2
01/05:00am 5.4 -1.9 0.3 69 2.0 NW 28 41 15 22 988.1 988.2 26.2
01/04:30am 5.3 -1.1 1.0 74 1.7 NNW 24 35 13 19 988.1 - 26.0
01/04:00am 4.9 -0.5 1.4 78 1.4 NW 19 24 10 13 988.3 988.4 25.8
01/03:30am 4.8 -0.7 0.5 74 1.7 NW 19 30 10 16 987.9 - 25.8
01/03:00am 4.5 -1.5 1.0 78 1.4 NW 22 32 12 17 987.6 987.7 25.8
01/02:30am 4.6 -1.8 0.8 76 1.5 NW 24 35 13 19 987.1 - 25.8
01/02:00am 5.0 -2.1 1.3 77 1.5 NW 28 41 15 22 986.9 987.0 25.8
01/01:30am 5.0 -1.4 1.0 75 1.6 NW 24 39 13 21 986.8 - 25.6
01/01:00am 4.7 -2.0 1.5 80 1.3 NW 26 43 14 23 986.3 986.4 25.6
01/12:30am 4.2 -1.2 2.2 87 0.8 NW 20 30 11 16 986.0 - 25.6
01/12:00am 4.1 -3.2 2.4 89 0.7 NW 30 41 16 22 985.7 985.8 25.0
 
Date/Time
EST
Temp
°C
App
Temp
°C
Dew
Point
Rel
Hum
%
Delta-T
°C
Wind Press
QNH
hPa
Press
MSL
hPa
Rain
since 9 am
mm
Dir
 
Spd
km/h
Gust
km/h
Spd
kts
Gust
kts
31/11:30pm 4.6 -2.4 1.9 83 1.1 NW 28 39 15 21 984.9 - 24.4
31/11:00pm 4.8 -1.3 2.6 86 0.9 NW 24 32 13 17 985.5 985.6 24.4
31/10:30pm 5.1 -1.5 2.2 81 1.2 NW 26 41 14 22 984.2 - 23.4
31/10:00pm 4.9 -1.6 2.5 84 1.0 NW 26 39 14 21 984.0 984.1 23.0
31/09:30pm 5.4 0.1 2.8 83 1.1 WNW 20 35 11 19 984.4 - 21.2
31/09:00pm 6.2 -0.5 1.6 72 1.9 NW 26 46 14 25 983.5 983.6 20.0
31/08:30pm 5.8 -0.8 1.9 76 1.6 NNW 26 39 14 21 982.2 - 19.6
31/08:00pm 6.3 -2.9 1.4 71 2.0 NW 39 65 21 35 981.7 981.8 19.4
31/07:30pm 6.0 -1.7 2.4 78 1.5 NW 32 46 17 25 982.0 - 18.8
31/07:00pm 6.4 -1.2 2.6 77 1.6 NW 32 46 17 25 981.6 981.7 18.2
31/06:30pm 7.5 2.2 2.8 72 2.0 NW 20 32 11 17 981.1 - 17.2
31/06:00pm 7.6 1.7 1.9 67 2.4 NW 22 41 12 22 981.4 981.5 17.2
31/05:30pm 6.1 2.7 4.0 86 0.9 WNW 11 17 6 9 981.3 - 17.2
31/05:00pm 6.0 2.2 3.9 86 0.9 NW 13 20 7 11 980.6 980.7 17.2
31/04:30pm 6.3 0.2 3.0 79 1.4 N 24 33 13 18 981.4 - 17.2
31/04:00pm 6.2 -0.6 3.1 80 1.3 N 28 39 15 21 981.3 981.4 17.2
31/03:30pm 6.2 0.3 3.9 85 1.0 NNW 24 35 13 19 980.6 - 17.2
31/03:00pm 7.0 3.7 4.5 84 1.1 NNW 11 20 6 11 981.3 981.4 17.2
31/02:30pm 5.8 2.3 3.5 85 1.0 NNW 11 15 6 8 983.1 - 17.0
31/02:00pm 5.6 3.0 3.2 84 1.0 ESE 6 9 3 5 981.9 982.0 17.0
31/01:30pm 6.3 2.3 5.0 91 0.6 SW 15 22 8 12 982.5 - 16.0
31/01:00pm 6.7 4.8 5.1 89 0.7 E 4 9 2 5 982.3 982.4 13.6
31/12:30pm 6.6 3.9 5.7 94 0.4 SSW 9 13 5 7 982.7 - 11.2
31/12:00pm 6.6 4.3 5.7 94 0.4 SSE 7 11 4 6 983.3 983.4 9.2
31/11:30am 6.8 5.1 5.9 94 0.4 SSE 4 7 2 4 984.2 - 6.6
31/11:00am 6.9 4.6 5.8 93 0.5 NE 7 9 4 5 984.3 984.4 5.6
31/10:30am 6.8 3.9 4.8 87 0.9 NW 9 15 5 8 985.8 - 3.8
31/10:00am 7.0 3.5 5.5 90 0.7 N 13 19 7 10 986.2 986.3 2.2
31/09:30am 7.1 3.8 6.2 94 0.4 NW 13 19 7 10 986.6 - 0.8
31/09:00am 7.3 4.4 6.4 94 0.4 N 11 15 6 8 986.5 986.6 23.8
31/08:30am 7.3 3.2 6.0 91 0.6 NNW 17 24 9 13 988.4 - 22.8
31/08:00am 7.3 2.5 5.5 88 0.8 NNW 20 24 11 13 988.7 988.8 22.4
31/07:30am 7.7 2.7 4.6 81 1.4 N 20 28 11 15 988.4 - 22.2
31/07:00am 7.6 2.7 5.2 85 1.1 NNW 20 30 11 16 989.2 989.3 22.2
31/06:30am 7.5 3.7 6.0 90 0.7 N 15 22 8 12 989.0 - 22.0
31/06:00am 7.1 3.7 6.0 93 0.5 W 13 20 7 11 989.8 989.9 21.6
31/05:30am 7.3 4.9 5.1 86 1.0 S 7 13 4 7 989.4 - 21.4
31/05:00am 7.5 2.7 4.8 83 1.2 WSW 19 24 10 13 990.1 990.1 21.0
31/04:30am 8.5 0.4 5.2 80 1.5 SW 37 54 20 29 988.6 - 19.2
31/04:00am 9.7 7.9 8.1 90 0.8 W 7 11 4 6 988.4 988.5 16.8
31/03:30am 10.6 6.5 6.2 74 2.1 NW 17 24 9 13 988.2 - 14.2
31/03:00am 11.6 6.1 5.7 67 2.8 WNW 24 33 13 18 988.5 988.6 14.2
31/02:30am 11.5 5.2 7.6 77 1.9 WNW 30 44 16 24 989.7 - 13.6
31/02:00am 12.5 8.2 7.0 69 2.7 WNW 19 26 10 14 988.3 988.4 11.2
31/01:30am 12.5 5.4 6.5 67 2.9 NW 33 54 18 29 987.7 - 11.0
31/01:00am 13.5 4.9 4.8 55 4.1 WNW 39 67 21 36 987.6 987.7 9.6
31/12:30am 12.9 5.6 5.3 60 3.5 NW 33 57 18 31 987.5 - 9.6
31/12:00am 13.0 5.8 4.9 58 3.8 NW 32 50 17 27 988.3 988.4 9.6
 
Date/Time
EST
Temp
°C
App
Temp
°C
Dew
Point
Rel
Hum
%
Delta-T
°C
Wind Press
QNH
hPa
Press
MSL
hPa
Rain
since 9 am
mm
Dir
 
Spd
km/h
Gust
km/h
Spd
kts
Gust
kts
30/11:30pm 13.1 5.7 4.8 57 3.8 NW 33 50 18 27 988.9 - 9.6
30/11:00pm 13.7 3.7 4.2 52 4.4 NW 46 82 25 44 988.7 988.8 9.6
30/10:30pm 13.4 3.7 4.1 53 4.2 WNW 44 74 24 40 989.3 - 9.6
30/10:00pm 13.8 2.1 3.3 49 4.8 NW 54 87 29 47 989.2 989.3 9.6
30/09:30pm 13.1 4.9 4.8 57 3.8 NW 37 57 20 31 989.5 - 9.4
30/09:00pm 12.7 3.4 5.8 63 3.3 NW 44 59 24 32 989.7 989.8 9.4
30/08:30pm 11.2 6.0 7.3 77 1.9 NW 24 43 13 23 990.8 - 8.6
30/08:00pm 12.0 7.0 6.6 69 2.6 WNW 22 41 12 22 991.3 991.3 6.8
30/07:30pm 11.8 6.3 5.9 67 2.8 WNW 24 41 13 22 991.7 - 6.8
30/07:00pm 11.8 4.7 5.6 66 2.9 WNW 32 48 17 26 992.1 992.1 6.8
30/06:30pm 11.9 5.8 6.5 69 2.6 WNW 28 39 15 21 992.3 - 6.8
30/06:00pm 11.8 5.6 7.7 76 2.0 WNW 30 48 16 26 993.0 993.1 6.8
30/05:30pm 11.3 7.2 8.5 83 1.4 WNW 20 28 11 15 992.9 - 6.2
30/05:00pm 11.8 6.7 7.7 76 2.0 WNW 24 37 13 20 992.8 992.9 5.6
30/04:30pm 11.5 6.1 8.1 79 1.7 WNW 26 41 14 22 992.5 - 5.6
30/04:00pm 11.7 5.4 7.6 76 2.0 WNW 30 46 16 25 992.9 993.0 4.8
30/03:30pm 11.2 5.3 7.7 79 1.7 WNW 28 41 15 22 992.4 - 4.8
30/03:00pm 11.1 4.2 7.4 78 1.8 WNW 33 48 18 26 992.6 992.7 4.4
30/02:30pm 10.9 4.2 7.4 79 1.7 NW 32 50 17 27 992.9 - 4.2
30/02:00pm 10.7 4.4 7.6 81 1.5 NW 30 43 16 23 993.5 993.6 3.8
30/01:30pm 10.8 4.5 7.3 79 1.7 NW 30 54 16 29 994.1 - 2.8
30/01:00pm 11.4 4.2 7.5 77 1.9 NW 35 54 19 29 994.2 994.3 1.8
30/12:30pm 12.6 3.6 6.4 66 3.0 NW 43 74 23 40 993.8 - 1.0
30/12:00pm 12.4 3.6 5.6 63 3.2 NW 41 65 22 35 993.7 993.8 1.0
30/11:30am 11.7 1.7 6.2 69 2.6 NW 48 69 26 37 994.1 - 0.8
30/11:00am 11.7 2.0 6.0 68 2.7 NW 46 63 25 34 994.9 995.0 0.8
30/10:30am 10.9 3.5 6.7 75 2.0 WNW 35 67 19 36 994.9 - 0.8

Other Formats:

Comma delimited format used in spreadsheet applications
http://www.bom.gov.au/fwo/IDT60801/IDT60801.94970.axf

JavaScript Object Notation format (JSON) in row-major order
http://www.bom.gov.au/fwo/IDT60801/IDT60801.94970.json